Yasa Eagle — V7XL3 — position and weather

sailwx.info

Track history (hours):
 
Tides and Currents Weather Stations Pressure Air Temp Water Temp Dewpoint Dewpoint Depression Visibility Wind Speed Wind Dir Waves Ship Positions

Yasa Eagle

Last reported at 2017-Oct-11 00:00 UTC. Time now 2017-Oct-17 01:01 UTC.
Position N 46°15' W 124°01'.

Length 229 m; draft 7 m.

Type: Cargo ship. MMSI: 538004507.

Date/timePositionNaut miles runAvg speedWind from/ knotsBaromVisibWave heightAir tempDewpointWater temp
2017-Oct-11 00:00N 46°15' W 124°01'510.3
2017-Oct-10 23:30N 46°12' W 123°56'4 7.5
2017-Oct-10 23:00N 46°12' W 123°50'3 6.8
2017-Oct-10 22:30N 46°13' W 123°46'5 9.5
2017-Oct-10 22:00N 46°15' W 123°40'5 9.9
2017-Oct-10 21:30N 46°16' W 123°33'4 9.0
2017-Oct-10 21:00N 46°15' W 123°26'510.1
2017-Oct-10 20:30N 46°10' W 123°25'4 8.9
2017-Oct-10 20:00N 46°09' W 123°18'611.0
2017-Oct-10 19:30N 46°11' W 123°11'511.0
2017-Oct-10 19:01N 46°09' W 123°04'611.0
2017-Oct-10 18:30N 46°06' W 122°57'4 8.9
2017-Oct-10 18:00N 46°03' W 122°53'4 8.8
2017-Oct-10 17:30N 45°59' W 122°50'5 9.7
2017-Oct-10 17:00N 45°54' W 122°48'510.0
2017-Oct-10 16:31N 45°49' W 122°48'510.5
2017-Oct-10 16:00N 45°44' W 122°46'5 9.4
2017-Oct-10 15:29N 45°39' W 122°46'1 2.2
2017-Oct-10 14:59N 45°39' W 122°44'0 0.0
2017-Oct-10 13:59N 45°39' W 122°44'0 0.0
2017-Oct-10 13:29N 45°39' W 122°44'0 0.0
2017-Oct-10 12:08N 45°39' W 122°44'0 0.0
2017-Oct-10 11:59N 45°39' W 122°44'0 0.0
2017-Oct-10 11:29N 45°39' W 122°44'0 0.0
2017-Oct-10 10:59N 45°39' W 122°44'0 0.0
2017-Oct-10 10:23N 45°39' W 122°44'0 0.0
2017-Oct-10 09:56N 45°39' W 122°44'0 0.0
2017-Oct-10 09:17N 45°39' W 122°44'0 0.0
2017-Oct-10 08:50N 45°39' W 122°44'0 0.0
2017-Oct-10 08:29N 45°39' W 122°44'0 0.0
2017-Oct-10 07:59N 45°39' W 122°44'0 0.0
2017-Oct-10 07:20N 45°39' W 122°44'0 0.0
2017-Oct-10 06:59N 45°39' W 122°44'0 0.0
2017-Oct-10 06:29N 45°39' W 122°44'0 0.0
2017-Oct-10 05:56N 45°39' W 122°44'0 0.0
2017-Oct-10 05:29N 45°39' W 122°44'0 0.0
2017-Oct-10 04:56N 45°39' W 122°44'0 0.0
2017-Oct-10 04:29N 45°39' W 122°44'0 0.0
2017-Oct-10 03:50N 45°39' W 122°44'0 0.0
2017-Oct-10 03:17N 45°39' W 122°44'0 0.0
2017-Oct-10 02:50N 45°39' W 122°44'0 0.0
2017-Oct-10 02:20N 45°39' W 122°44'0 0.0
2017-Oct-10 01:56N 45°39' W 122°44'0 0.0
2017-Oct-10 01:11N 45°39' W 122°44'0 0.0
2017-Oct-10 00:56N 45°39' W 122°44'0 0.0
2017-Oct-10 00:29N 45°39' W 122°44'0 0.0
2017-Oct-09 23:59N 45°39' W 122°44'0 0.0
2017-Oct-09 23:29N 45°39' W 122°44'0 0.0
2017-Oct-09 22:59N 45°39' W 122°44'0 0.0
2017-Oct-09 22:29N 45°39' W 122°44'0 0.0
2017-Oct-09 21:59N 45°39' W 122°44'0 0.0
2017-Oct-09 21:26N 45°39' W 122°44'0 0.0
2017-Oct-09 20:50N 45°39' W 122°44'0 0.0
2017-Oct-09 20:23N 45°39' W 122°44'0 0.0
2017-Oct-09 19:53N 45°39' W 122°44'0 0.0
2017-Oct-09 19:29N 45°39' W 122°44'0 0.2
2017-Oct-09 18:59N 45°39' W 122°44'1 2.2
2017-Oct-09 18:30N 45°38' W 122°43'1 1.6
2017-Oct-09 17:56N 45°38' W 122°42'0 0.0
2017-Oct-09 17:29N 45°38' W 122°42'0 0.0
2017-Oct-09 16:59N 45°38' W 122°42'0 0.0
2017-Oct-09 16:29N 45°38' W 122°42'0 0.0
2017-Oct-09 15:59N 45°38' W 122°42'0 0.0
2017-Oct-09 15:23N 45°38' W 122°42'0 0.0
2017-Oct-09 14:59N 45°38' W 122°42'0 0.0
2017-Oct-09 14:29N 45°38' W 122°42'0 0.0
2017-Oct-09 13:59N 45°38' W 122°42'0 0.0
2017-Oct-09 13:29N 45°38' W 122°42'0 0.0
2017-Oct-09 12:56N 45°38' W 122°42'0 0.0
2017-Oct-09 12:26N 45°38' W 122°42'0 0.0
2017-Oct-09 11:59N 45°38' W 122°42'0 0.0
2017-Oct-09 11:29N 45°38' W 122°42'0 0.0
2017-Oct-09 10:59N 45°38' W 122°42'0 0.0
2017-Oct-09 10:08N 45°38' W 122°42'0 0.0
2017-Oct-09 09:59N 45°38' W 122°42'0 0.0
2017-Oct-09 08:59N 45°38' W 122°42'0 0.0
2017-Oct-09 08:29N 45°38' W 122°42'0 0.0
2017-Oct-09 07:59N 45°38' W 122°42'0 0.0
2017-Oct-09 07:29N 45°38' W 122°42'0 0.0
2017-Oct-09 06:56N 45°38' W 122°42'0 0.0
2017-Oct-09 06:29N 45°38' W 122°42'0 0.0
2017-Oct-09 05:59N 45°38' W 122°42'0 0.0
2017-Oct-09 05:29N 45°38' W 122°42'0 0.1
2017-Oct-09 04:59N 45°38' W 122°42'0 0.0
2017-Oct-09 04:29N 45°38' W 122°42'0 0.0
2017-Oct-09 03:56N 45°38' W 122°42'0 0.0
2017-Oct-09 03:29N 45°38' W 122°42'0 0.0
2017-Oct-09 02:59N 45°38' W 122°42'0 0.0
2017-Oct-09 02:26N 45°38' W 122°42'0 0.0
2017-Oct-09 01:59N 45°38' W 122°42'0 0.0
2017-Oct-09 01:29N 45°38' W 122°42'0 0.0
2017-Oct-09 00:59N 45°38' W 122°42'0 0.0
2017-Oct-09 00:23N 45°38' W 122°42'0 0.0
2017-Oct-08 23:59N 45°38' W 122°42'0 0.0
2017-Oct-08 23:29N 45°38' W 122°42'0 0.0
2017-Oct-08 22:59N 45°38' W 122°42'0 0.0
2017-Oct-08 22:29N 45°38' W 122°42'0 0.0
2017-Oct-08 21:59N 45°38' W 122°42'0 0.0
2017-Oct-08 21:26N 45°38' W 122°42'0 0.0
2017-Oct-08 20:56N 45°38' W 122°42'0 0.0
2017-Oct-08 20:29N 45°38' W 122°42'0 0.0
2017-Oct-08 19:59N 45°38' W 122°42'0 0.0
2017-Oct-08 19:29N 45°38' W 122°42'0 0.0
2017-Oct-08 18:59N 45°38' W 122°42'0 0.0
2017-Oct-08 18:29N 45°38' W 122°42'0 0.0
2017-Oct-08 17:59N 45°38' W 122°42'0 0.0
2017-Oct-08 17:29N 45°38' W 122°42'0 0.0
2017-Oct-08 16:59N 45°38' W 122°42'0 0.0
2017-Oct-08 16:29N 45°38' W 122°42'0 0.0
2017-Oct-08 15:56N 45°38' W 122°42'0 0.0
2017-Oct-08 15:29N 45°38' W 122°42'0 0.0
2017-Oct-08 14:59N 45°38' W 122°42'0 0.0
2017-Oct-08 14:29N 45°38' W 122°42'0 0.0
2017-Oct-08 13:59N 45°38' W 122°42'0 0.0
2017-Oct-08 13:29N 45°38' W 122°42'0 0.0
2017-Oct-08 12:59N 45°38' W 122°42'0 0.0
2017-Oct-08 12:29N 45°38' W 122°42'0 0.0
2017-Oct-08 11:59N 45°38' W 122°42'0 0.0
2017-Oct-08 11:29N 45°38' W 122°42'0 0.0
2017-Oct-08 10:59N 45°38' W 122°42'0 0.0
2017-Oct-08 10:29N 45°38' W 122°42'0 0.0
2017-Oct-08 09:59N 45°38' W 122°42'0 0.0
2017-Oct-08 09:29N 45°38' W 122°42'0 0.0
2017-Oct-08 08:59N 45°38' W 122°42'0 0.0
2017-Oct-08 08:29N 45°38' W 122°42'0 0.0
2017-Oct-08 07:59N 45°38' W 122°42'0 0.0
2017-Oct-08 07:29N 45°38' W 122°42'0 0.0
2017-Oct-08 06:59N 45°38' W 122°42'0 0.0
2017-Oct-08 06:29N 45°38' W 122°42'0 0.0
2017-Oct-08 05:56N 45°38' W 122°42'0 0.0
2017-Oct-08 05:29N 45°38' W 122°42'0 0.0
2017-Oct-08 04:59N 45°38' W 122°42'0 0.0
2017-Oct-08 04:29N 45°38' W 122°42'0 0.0
2017-Oct-08 03:59N 45°38' W 122°42'0 0.0
2017-Oct-08 03:29N 45°38' W 122°42'0 0.0
2017-Oct-08 02:59N 45°38' W 122°42'0 0.0
2017-Oct-08 02:29N 45°38' W 122°42'0 0.0
2017-Oct-08 01:59N 45°38' W 122°42'0 0.0
2017-Oct-08 01:29N 45°38' W 122°42'0 0.0
2017-Oct-08 00:56N 45°38' W 122°42'0 0.0
2017-Oct-08 00:29N 45°38' W 122°42'0 0.0
2017-Oct-07 23:59N 45°38' W 122°42'0 0.0
2017-Oct-07 23:29N 45°38' W 122°42'0 0.0
2017-Oct-07 22:59N 45°38' W 122°42'0 0.0
2017-Oct-07 22:29N 45°38' W 122°42'0 0.0
2017-Oct-07 21:59N 45°38' W 122°42'0 0.0
2017-Oct-07 21:23N 45°38' W 122°42'0 0.0
2017-Oct-07 20:59N 45°38' W 122°42'0 0.0
2017-Oct-07 20:29N 45°38' W 122°42'0 0.0
2017-Oct-07 19:59N 45°38' W 122°42'0 0.0
2017-Oct-07 19:29N 45°38' W 122°42'0 0.0
2017-Oct-07 18:59N 45°38' W 122°42'0 0.0
2017-Oct-07 18:29N 45°38' W 122°42'0 0.0
2017-Oct-07 17:59N 45°38' W 122°42'0 0.0
2017-Oct-07 17:29N 45°38' W 122°42'0 0.0
2017-Oct-07 16:59N 45°38' W 122°42'0 0.0
2017-Oct-07 16:29N 45°38' W 122°42'0 0.0
2017-Oct-07 15:59N 45°38' W 122°42'0 0.0
2017-Oct-07 15:29N 45°38' W 122°42'0 0.0
2017-Oct-07 14:59N 45°38' W 122°42'0 0.0
2017-Oct-07 14:29N 45°38' W 122°42'0 0.0
2017-Oct-07 13:59N 45°38' W 122°42'0 0.0
2017-Oct-07 13:29N 45°38' W 122°42'0 0.0
2017-Oct-07 12:59N 45°38' W 122°42'0 0.0
2017-Oct-07 12:30N 45°38' W 122°42'2 3.0
2017-Oct-07 12:00N 45°39' W 122°44'5 9.7
2017-Oct-07 11:30N 45°43' W 122°46'612.3
2017-Oct-07 11:00N 45°49' W 122°48'611.9
2017-Oct-07 10:30N 45°55' W 122°48'611.9
2017-Oct-07 09:59N 46°01' W 122°51'511.3
2017-Oct-07 09:30N 46°06' W 122°55'611.5
2017-Oct-07 09:00N 46°09' W 123°02'910.8
2017-Oct-07 08:12N 46°09' W 123°15'212.3
2017-Oct-07 08:00N 46°09' W 123°18'611.2
2017-Oct-07 07:30N 46°11' W 123°26'7 9.1
2017-Oct-07 06:46N 46°16' W 123°32'312.9
2017-Oct-07 06:30N 46°15' W 123°37'612.6
2017-Oct-07 06:00N 46°13' W 123°45'1 2.4
2017-Oct-07 05:29N 46°13' W 123°47'0 0.3
2017-Oct-07 04:59N 46°13' W 123°47'0 0.2
2017-Oct-07 04:29N 46°13' W 123°47'0 0.0
2017-Oct-07 03:59N 46°13' W 123°47'0 0.0
2017-Oct-07 03:29N 46°13' W 123°47'0 0.0
2017-Oct-07 02:54N 46°13' W 123°47'0 0.0
2017-Oct-07 02:29N 46°13' W 123°47'0 0.1
2017-Oct-07 02:00N 46°13' W 123°48'0 0.0
2017-Oct-07 01:29N 46°13' W 123°48'0 0.0
2017-Oct-07 00:59N 46°13' W 123°48'0 0.0
2017-Oct-07 00:29N 46°13' W 123°48'0 0.0
2017-Oct-06 23:59N 46°13' W 123°48'0 0.1
2017-Oct-06 23:26N 46°13' W 123°48'0 0.5
2017-Oct-06 22:59N 46°13' W 123°47'0 0.2
2017-Oct-06 22:29N 46°13' W 123°47'0 0.0
2017-Oct-06 22:00N 46°13' W 123°47'0 0.0
2017-Oct-06 21:05N 46°13' W 123°47'0 0.0
2017-Oct-06 20:59N 46°13' W 123°47'0 0.0
2017-Oct-06 20:26N 46°13' W 123°47'0 0.0
2017-Oct-06 20:00N 46°13' W 123°47'0 0.0
2017-Oct-06 19:27N 46°13' W 123°47'0 0.0
2017-Oct-06 19:00N 46°13' W 123°47'0 0.0
2017-Oct-06 18:30N 46°13' W 123°47'0 0.0
2017-Oct-06 18:00N 46°13' W 123°47'0 0.1
2017-Oct-06 17:23N 46°13' W 123°47'0 0.4
2017-Oct-06 16:54N 46°13' W 123°48'0 0.1
2017-Oct-06 16:30N 46°13' W 123°48'0 0.1
2017-Oct-06 15:51N 46°13' W 123°48'0 0.0
2017-Oct-06 15:29N 46°13' W 123°48'0 0.0
2017-Oct-06 14:38N 46°13' W 123°48'0 0.0
2017-Oct-06 14:29N 46°13' W 123°48'0 0.0
2017-Oct-06 13:59N 46°13' W 123°48'0 0.0
2017-Oct-06 13:29N 46°13' W 123°48'0 0.0
2017-Oct-06 12:59N 46°13' W 123°48'0 0.0
2017-Oct-06 12:29N 46°13' W 123°48'0 0.0
2017-Oct-06 11:47N 46°13' W 123°48'0 0.0
2017-Oct-06 11:26N 46°13' W 123°48'0 0.0
2017-Oct-06 10:59N 46°13' W 123°48'0 0.4
2017-Oct-06 10:29N 46°13' W 123°47'0 0.1
2017-Oct-06 09:59N 46°13' W 123°47'0 0.1
2017-Oct-06 09:29N 46°13' W 123°47'0 0.0
2017-Oct-06 08:59N 46°13' W 123°47'0 0.0
2017-Oct-06 08:29N 46°13' W 123°47'0 0.0
2017-Oct-06 07:59N 46°13' W 123°47'0 0.1
2017-Oct-06 07:29N 46°13' W 123°47'0 0.0
2017-Oct-06 06:59N 46°13' W 123°47'0 0.0
2017-Oct-06 06:29N 46°13' W 123°47'0 0.0
2017-Oct-06 05:59N 46°13' W 123°47'0 0.1
2017-Oct-06 05:29N 46°13' W 123°47'0 0.5
2017-Oct-06 04:59N 46°13' W 123°48'0 0.2
2017-Oct-06 04:30N 46°13' W 123°48'0 0.0
2017-Oct-06 04:00N 46°13' W 123°48'0 0.0
2017-Oct-06 03:30N 46°13' W 123°48'0 0.0
2017-Oct-06 03:00N 46°13' W 123°48'0 0.0
2017-Oct-06 02:29N 46°13' W 123°48'0 0.0
2017-Oct-06 01:59N 46°13' W 123°48'0 0.0
2017-Oct-06 01:29N 46°13' W 123°48'0 0.0
2017-Oct-06 00:59N 46°13' W 123°48'0 0.0
2017-Oct-06 00:29N 46°13' W 123°48'0 0.0
2017-Oct-05 23:57N 46°13' W 123°48'0 0.0
2017-Oct-05 23:29N 46°13' W 123°48'0 0.0
2017-Oct-05 22:59N 46°13' W 123°48'0 0.0
2017-Oct-05 22:29N 46°13' W 123°48'0 0.3
2017-Oct-05 21:59N 46°13' W 123°47'0 0.3
2017-Oct-05 21:29N 46°13' W 123°47'0 0.0
2017-Oct-05 20:59N 46°13' W 123°47'0 0.0
2017-Oct-05 20:29N 46°13' W 123°47'0 0.1
2017-Oct-05 19:59N 46°13' W 123°47'0 0.1
2017-Oct-05 19:29N 46°13' W 123°47'0 0.0
2017-Oct-05 18:59N 46°13' W 123°47'0 0.0
2017-Oct-05 18:30N 46°13' W 123°47'0 0.0
2017-Oct-05 17:59N 46°13' W 123°47'0 0.0
2017-Oct-05 17:29N 46°13' W 123°47'0 0.4
2017-Oct-05 16:59N 46°13' W 123°47'0 0.1
2017-Oct-05 15:28N 46°13' W 123°48'0 0.0
2017-Oct-05 14:59N 46°13' W 123°48'0 0.0
2017-Oct-05 14:29N 46°13' W 123°48'0 0.0
2017-Oct-05 13:59N 46°13' W 123°48'0 0.0
2017-Oct-05 13:27N 46°13' W 123°48'0 0.0
2017-Oct-05 12:38N 46°13' W 123°48'0 0.0
2017-Oct-05 12:29N 46°13' W 123°48'0 0.0
2017-Oct-05 11:50N 46°13' W 123°48'0 0.0
2017-Oct-05 11:29N 46°13' W 123°48'0 0.0
2017-Oct-05 10:50N 46°13' W 123°48'0 0.0
2017-Oct-05 10:29N 46°13' W 123°48'0 0.0
2017-Oct-05 09:59N 46°13' W 123°48'0 0.0
2017-Oct-05 09:29N 46°13' W 123°48'0 0.3
2017-Oct-05 08:59N 46°13' W 123°47'0 0.3
2017-Oct-05 08:29N 46°13' W 123°47'0 0.0
2017-Oct-05 07:47N 46°13' W 123°47'0 0.2
2017-Oct-05 07:29N 46°13' W 123°47'0 0.0
2017-Oct-05 06:59N 46°13' W 123°47'0 0.0
2017-Oct-05 06:29N 46°13' W 123°47'0 0.0
2017-Oct-05 05:41N 46°13' W 123°47'0 0.1
2017-Oct-05 05:29N 46°13' W 123°47'0 0.0
2017-Oct-05 04:59N 46°13' W 123°47'0 0.5
2017-Oct-05 04:29N 46°13' W 123°48'0 0.1
2017-Oct-05 03:59N 46°13' W 123°48'0 0.0
2017-Oct-05 03:29N 46°13' W 123°48'0 0.0
2017-Oct-05 02:59N 46°13' W 123°48'0 0.0
2017-Oct-05 02:29N 46°13' W 123°48'0 0.0
2017-Oct-05 01:59N 46°13' W 123°48'0 0.0
2017-Oct-05 01:26N 46°13' W 123°48'0 0.0
2017-Oct-05 00:59N 46°13' W 123°48'0 0.0
2017-Oct-05 00:29N 46°13' W 123°48'0 0.0
2017-Oct-04 23:59N 46°13' W 123°48'0 0.0
2017-Oct-04 23:29N 46°13' W 123°48'0 0.0
2017-Oct-04 22:59N 46°13' W 123°48'0 0.0
2017-Oct-04 22:26N 46°13' W 123°48'0 0.0
2017-Oct-04 21:44N 46°13' W 123°48'0 0.3
2017-Oct-04 21:29N 46°13' W 123°47'0 0.4
2017-Oct-04 20:59N 46°13' W 123°47'0 0.1
2017-Oct-04 20:29N 46°13' W 123°47'0 0.0
2017-Oct-04 19:59N 46°13' W 123°47'0 0.0
2017-Oct-04 19:29N 46°13' W 123°47'0 0.0
2017-Oct-04 18:59N 46°13' W 123°47'0 0.0
2017-Oct-04 18:29N 46°13' W 123°47'0 0.0
2017-Oct-04 17:59N 46°13' W 123°47'0 0.0
2017-Oct-04 17:29N 46°13' W 123°47'0 0.1
2017-Oct-04 16:59N 46°13' W 123°47'0 0.4
2017-Oct-04 16:29N 46°13' W 123°47'0 0.2
2017-Oct-04 15:59N 46°13' W 123°48'0 0.1
2017-Oct-04 15:29N 46°13' W 123°48'0 0.0
2017-Oct-04 14:59N 46°13' W 123°48'0 0.0
2017-Oct-04 14:29N 46°13' W 123°48'0 0.0
2017-Oct-04 13:53N 46°13' W 123°48'0 0.0
2017-Oct-04 13:29N 46°13' W 123°48'0 0.0
2017-Oct-04 12:59N 46°13' W 123°48'0 0.0
2017-Oct-04 12:29N 46°13' W 123°48'0 0.0
2017-Oct-04 11:56N 46°13' W 123°48'0 0.0
2017-Oct-04 11:29N 46°13' W 123°48'0 0.0
2017-Oct-04 10:59N 46°13' W 123°48'0 0.0
2017-Oct-04 10:26N 46°13' W 123°48'0 0.0
2017-Oct-04 09:59N 46°13' W 123°48'0 0.0
2017-Oct-04 09:29N 46°13' W 123°48'0 0.0
2017-Oct-04 08:59N 46°13' W 123°48'0 0.2
2017-Oct-04 08:29N 46°13' W 123°48'0 0.4
2017-Oct-04 07:59N 46°13' W 123°47'0 0.1
2017-Oct-04 07:14N 46°13' W 123°47'0 0.0
2017-Oct-04 06:59N 46°13' W 123°47'0 0.0
2017-Oct-04 06:29N 46°13' W 123°47'0 0.0
2017-Oct-04 05:59N 46°13' W 123°47'0 0.0
2017-Oct-04 05:26N 46°13' W 123°47'0 0.0
2017-Oct-04 04:59N 46°13' W 123°47'0 0.0
2017-Oct-04 04:29N 46°13' W 123°47'0 0.2
2017-Oct-04 03:26N 46°13' W 123°47'0 0.1
2017-Oct-04 02:59N 46°13' W 123°48'0 0.0
2017-Oct-04 02:29N 46°13' W 123°48'0 0.0
2017-Oct-04 01:59N 46°13' W 123°48'0 0.0
2017-Oct-04 01:29N 46°13' W 123°48'0 0.0
2017-Oct-04 00:59N 46°13' W 123°48'0 0.0
2017-Oct-04 00:29N 46°13' W 123°48'0 0.0
2017-Oct-03 23:59N 46°13' W 123°48'0 0.0
2017-Oct-03 23:29N 46°13' W 123°48'0 0.0
2017-Oct-03 22:59N 46°13' W 123°48'0 0.0
2017-Oct-03 22:17N 46°13' W 123°48'0 0.0
2017-Oct-03 21:59N 46°13' W 123°48'0 0.1
2017-Oct-03 21:29N 46°13' W 123°48'0 0.2
2017-Oct-03 20:59N 46°13' W 123°47'0 0.4
2017-Oct-03 20:29N 46°13' W 123°47'0 0.2
2017-Oct-03 19:59N 46°13' W 123°47'0 0.0
2017-Oct-03 19:29N 46°13' W 123°47'0 0.0
2017-Oct-03 18:59N 46°13' W 123°47'0 0.0
2017-Oct-03 18:29N 46°13' W 123°47'0 0.0
2017-Oct-03 17:59N 46°13' W 123°47'0 0.0
2017-Oct-03 17:29N 46°13' W 123°47'0 0.0
2017-Oct-03 16:59N 46°13' W 123°47'0 0.0
2017-Oct-03 16:29N 46°13' W 123°47'0 0.2
2017-Oct-03 15:59N 46°13' W 123°47'0 0.3
2017-Oct-03 15:20N 46°13' W 123°48'0 0.0
2017-Oct-03 14:56N 46°13' W 123°48'0 0.0
2017-Oct-03 13:59N 46°13' W 123°48'0 0.0
2017-Oct-03 13:29N 46°13' W 123°48'0 0.0
2017-Oct-03 12:56N 46°13' W 123°48'0 0.0
2017-Oct-03 12:29N 46°13' W 123°48'0 0.0
2017-Oct-03 11:59N 46°13' W 123°48'0 0.0
2017-Oct-03 11:29N 46°13' W 123°48'0 0.0
2017-Oct-03 10:59N 46°13' W 123°48'0 0.0
2017-Oct-03 10:29N 46°13' W 123°48'0 0.0
2017-Oct-03 09:56N 46°13' W 123°48'0 0.1
2017-Oct-03 09:29N 46°13' W 123°48'0 0.0
2017-Oct-03 08:59N 46°13' W 123°48'0 0.1
2017-Oct-03 08:26N 46°13' W 123°48'0 0.2
2017-Oct-03 08:00N 46°13' W 123°47'0 0.4
2017-Oct-03 07:30N 46°13' W 123°47'0 0.1
2017-Oct-03 06:57N 46°13' W 123°47'0 0.0
2017-Oct-03 06:27N 46°13' W 123°47'0 0.1
2017-Oct-03 05:57N 46°13' W 123°47'0 0.0
2017-Oct-03 05:29N 46°13' W 123°47'0 0.0
2017-Oct-03 05:00N 46°13' W 123°47'0 0.0
2017-Oct-03 04:30N 46°13' W 123°47'0 0.0
2017-Oct-03 04:00N 46°13' W 123°47'0 0.4
2017-Oct-03 03:27N 46°13' W 123°47'0 0.2
2017-Oct-03 03:00N 46°13' W 123°47'0 0.1
2017-Oct-03 02:29N 46°13' W 123°48'0 0.0
2017-Oct-03 01:57N 46°13' W 123°48'0 0.0
2017-Oct-03 01:12N 46°13' W 123°48'0 0.0
2017-Oct-03 00:38N 46°13' W 123°48'0 0.0
2017-Oct-03 00:29N 46°13' W 123°48'0 0.0
2017-Oct-02 23:59N 46°13' W 123°48'0 0.0
2017-Oct-02 23:29N 46°13' W 123°48'0 0.0
2017-Oct-02 22:59N 46°13' W 123°48'0 0.0
2017-Oct-02 22:29N 46°13' W 123°48'0 0.0
2017-Oct-02 21:56N 46°13' W 123°48'0 0.1
2017-Oct-02 21:29N 46°13' W 123°48'0 0.0
2017-Oct-02 20:59N 46°13' W 123°48'0 0.1
2017-Oct-02 20:29N 46°13' W 123°48'0 0.4
2017-Oct-02 19:59N 46°13' W 123°47'0 0.1
2017-Oct-02 19:29N 46°13' W 123°47'0 0.0
2017-Oct-02 18:59N 46°13' W 123°47'0 0.0
2017-Oct-02 18:29N 46°13' W 123°47'0 0.0
2017-Oct-02 17:59N 46°13' W 123°47'0 0.0
2017-Oct-02 17:29N 46°13' W 123°47'0 0.0
2017-Oct-02 16:56N 46°13' W 123°47'0 0.0
2017-Oct-02 16:29N 46°13' W 123°47'0 0.0
2017-Oct-02 15:59N 46°13' W 123°47'0 0.1
2017-Oct-02 15:29N 46°13' W 123°47'0 0.4
2017-Oct-02 14:59N 46°13' W 123°47'0 0.2
2017-Oct-02 14:24N 46°13' W 123°48'0 0.0
2017-Oct-02 13:38N 46°13' W 123°48'0 0.1
2017-Oct-02 13:29N 46°13' W 123°48'0 0.0
2017-Oct-02 12:59N 46°13' W 123°48'0 0.0
2017-Oct-02 12:29N 46°13' W 123°48'0 0.0
2017-Oct-02 11:59N 46°13' W 123°48'0 0.0
2017-Oct-02 11:26N 46°13' W 123°48'0 0.0
2017-Oct-02 10:56N 46°13' W 123°48'0 0.0
2017-Oct-02 10:29N 46°13' W 123°48'0 0.0
2017-Oct-02 09:59N 46°13' W 123°48'0 0.0
2017-Oct-02 09:29N 46°13' W 123°48'0 0.0
2017-Oct-02 08:59N 46°13' W 123°48'0 0.0
2017-Oct-02 08:26N 46°13' W 123°48'0 0.1
2017-Oct-02 07:59N 46°13' W 123°47'0 0.0
2017-Oct-02 07:29N 46°13' W 123°47'0 0.3
2017-Oct-02 06:59N 46°13' W 123°47'0 0.4
2017-Oct-02 06:29N 46°13' W 123°47'0 0.1
2017-Oct-02 05:59N 46°13' W 123°47'0 0.0
2017-Oct-02 05:30N 46°13' W 123°47'0 0.0
2017-Oct-02 04:54N 46°13' W 123°47'0 0.0
2017-Oct-02 04:27N 46°13' W 123°47'0 0.1
2017-Oct-02 04:00N 46°13' W 123°47'0 0.0
2017-Oct-02 03:27N 46°13' W 123°47'0 0.1
2017-Oct-02 02:57N 46°13' W 123°47'0 0.2
2017-Oct-02 02:29N 46°13' W 123°47'0 0.3
2017-Oct-02 02:00N 46°13' W 123°47'0 0.1
2017-Oct-02 01:30N 46°13' W 123°47'0 0.1
2017-Oct-02 01:00N 46°13' W 123°48'0 0.0
2017-Oct-02 00:30N 46°13' W 123°48'0 0.0
2017-Oct-01 23:57N 46°13' W 123°48'0 0.0
2017-Oct-01 23:30N 46°13' W 123°48'0 0.0
2017-Oct-01 23:00N 46°13' W 123°48'0 0.0
2017-Oct-01 22:30N 46°13' W 123°48'0 0.0
2017-Oct-01 21:26N 46°13' W 123°48'0 0.0
2017-Oct-01 20:59N 46°13' W 123°48'0 0.1
2017-Oct-01 20:29N 46°13' W 123°48'0 0.5
2017-Oct-01 19:59N 46°13' W 123°47'0 0.1
2017-Oct-01 19:29N 46°13' W 123°47'0 0.1
2017-Oct-01 18:59N 46°13' W 123°47'0 0.0
2017-Oct-01 18:29N 46°13' W 123°47'0 0.0
2017-Oct-01 17:59N 46°13' W 123°47'0 0.0
2017-Oct-01 17:29N 46°13' W 123°47'0 0.1
2017-Oct-01 16:59N 46°13' W 123°47'0 0.1
2017-Oct-01 16:23N 46°13' W 123°47'0 0.1
2017-Oct-01 15:59N 46°13' W 123°47'0 0.0
2017-Oct-01 15:29N 46°13' W 123°47'0 0.1
2017-Oct-01 14:53N 46°13' W 123°47'0 0.3
2017-Oct-01 14:29N 46°13' W 123°47'0 0.3
2017-Oct-01 13:59N 46°13' W 123°47'0 0.1
2017-Oct-01 13:26N 46°13' W 123°48'0 0.0
2017-Oct-01 12:59N 46°13' W 123°48'0 0.0
2017-Oct-01 12:29N 46°13' W 123°48'0 0.0
2017-Oct-01 11:59N 46°13' W 123°48'0 0.0
2017-Oct-01 11:29N 46°13' W 123°48'0 0.0
2017-Oct-01 10:59N 46°13' W 123°48'0 0.0
2017-Oct-01 10:29N 46°13' W 123°48'0 0.0
2017-Oct-01 09:59N 46°13' W 123°48'0 0.0
2017-Oct-01 09:29N 46°13' W 123°48'0 0.0
2017-Oct-01 08:59N 46°13' W 123°48'0 0.0
2017-Oct-01 08:29N 46°13' W 123°48'0 0.0
2017-Oct-01 07:54N 46°13' W 123°48'0 0.0
2017-Oct-01 07:27N 46°13' W 123°48'0 0.1
2017-Oct-01 06:57N 46°13' W 123°47'0 0.1
2017-Oct-01 06:30N 46°13' W 123°47'0 0.3
2017-Oct-01 06:00N 46°13' W 123°47'0 0.1
2017-Oct-01 05:27N 46°13' W 123°47'0 0.1
2017-Oct-01 04:57N 46°13' W 123°47'0 0.0
2017-Oct-01 04:27N 46°13' W 123°47'0 0.0
2017-Oct-01 04:00N 46°13' W 123°47'0 0.0
2017-Oct-01 03:06N 46°13' W 123°47'0 0.1
2017-Oct-01 03:00N 46°13' W 123°47'  
Track history (hours):
 
Tides and Currents Weather Stations Pressure Air Temp Water Temp Dewpoint Dewpoint Depression Visibility Wind Speed Wind Dir Waves Ship Positions

Yasa Eagle

Last reported at 2017-Oct-11 00:00 UTC. Time now 2017-Oct-17 01:01 UTC.
Position N 46°15' W 124°01'.

Length 229 m; draft 7 m.

Type: Cargo ship. MMSI: 538004507.

Date/timePositionNaut miles runAvg speedWind from/ knotsBaromVisibWave heightAir tempDewpointWater temp
2017-Oct-11 00:00N 46°15' W 124°01'510.3
2017-Oct-10 23:30N 46°12' W 123°56'4 7.5
2017-Oct-10 23:00N 46°12' W 123°50'3 6.8
2017-Oct-10 22:30N 46°13' W 123°46'5 9.5
2017-Oct-10 22:00N 46°15' W 123°40'5 9.9
2017-Oct-10 21:30N 46°16' W 123°33'4 9.0
2017-Oct-10 21:00N 46°15' W 123°26'510.1
2017-Oct-10 20:30N 46°10' W 123°25'4 8.9
2017-Oct-10 20:00N 46°09' W 123°18'611.0
2017-Oct-10 19:30N 46°11' W 123°11'511.0
2017-Oct-10 19:01N 46°09' W 123°04'611.0
2017-Oct-10 18:30N 46°06' W 122°57'4 8.9
2017-Oct-10 18:00N 46°03' W 122°53'4 8.8
2017-Oct-10 17:30N 45°59' W 122°50'5 9.7
2017-Oct-10 17:00N 45°54' W 122°48'510.0
2017-Oct-10 16:31N 45°49' W 122°48'510.5
2017-Oct-10 16:00N 45°44' W 122°46'5 9.4
2017-Oct-10 15:29N 45°39' W 122°46'1 2.2
2017-Oct-10 14:59N 45°39' W 122°44'0 0.0
2017-Oct-10 13:59N 45°39' W 122°44'0 0.0
2017-Oct-10 13:29N 45°39' W 122°44'0 0.0
2017-Oct-10 12:08N 45°39' W 122°44'0 0.0
2017-Oct-10 11:59N 45°39' W 122°44'0 0.0
2017-Oct-10 11:29N 45°39' W 122°44'0 0.0
2017-Oct-10 10:59N 45°39' W 122°44'0 0.0
2017-Oct-10 10:23N 45°39' W 122°44'0 0.0
2017-Oct-10 09:56N 45°39' W 122°44'0 0.0
2017-Oct-10 09:17N 45°39' W 122°44'0 0.0
2017-Oct-10 08:50N 45°39' W 122°44'0 0.0
2017-Oct-10 08:29N 45°39' W 122°44'0 0.0
2017-Oct-10 07:59N 45°39' W 122°44'0 0.0
2017-Oct-10 07:20N 45°39' W 122°44'0 0.0
2017-Oct-10 06:59N 45°39' W 122°44'0 0.0
2017-Oct-10 06:29N 45°39' W 122°44'0 0.0
2017-Oct-10 05:56N 45°39' W 122°44'0 0.0
2017-Oct-10 05:29N 45°39' W 122°44'0 0.0
2017-Oct-10 04:56N 45°39' W 122°44'0 0.0
2017-Oct-10 04:29N 45°39' W 122°44'0 0.0
2017-Oct-10 03:50N 45°39' W 122°44'0 0.0
2017-Oct-10 03:17N 45°39' W 122°44'0 0.0
2017-Oct-10 02:50N 45°39' W 122°44'0 0.0
2017-Oct-10 02:20N 45°39' W 122°44'0 0.0
2017-Oct-10 01:56N 45°39' W 122°44'0 0.0
2017-Oct-10 01:11N 45°39' W 122°44'0 0.0
2017-Oct-10 00:56N 45°39' W 122°44'0 0.0
2017-Oct-10 00:29N 45°39' W 122°44'0 0.0
2017-Oct-09 23:59N 45°39' W 122°44'0 0.0
2017-Oct-09 23:29N 45°39' W 122°44'0 0.0
2017-Oct-09 22:59N 45°39' W 122°44'0 0.0
2017-Oct-09 22:29N 45°39' W 122°44'0 0.0
2017-Oct-09 21:59N 45°39' W 122°44'0 0.0
2017-Oct-09 21:26N 45°39' W 122°44'0 0.0
2017-Oct-09 20:50N 45°39' W 122°44'0 0.0
2017-Oct-09 20:23N 45°39' W 122°44'0 0.0
2017-Oct-09 19:53N 45°39' W 122°44'0 0.0
2017-Oct-09 19:29N 45°39' W 122°44'0 0.2
2017-Oct-09 18:59N 45°39' W 122°44'1 2.2
2017-Oct-09 18:30N 45°38' W 122°43'1 1.6
2017-Oct-09 17:56N 45°38' W 122°42'0 0.0
2017-Oct-09 17:29N 45°38' W 122°42'0 0.0
2017-Oct-09 16:59N 45°38' W 122°42'0 0.0
2017-Oct-09 16:29N 45°38' W 122°42'0 0.0
2017-Oct-09 15:59N 45°38' W 122°42'0 0.0
2017-Oct-09 15:23N 45°38' W 122°42'0 0.0
2017-Oct-09 14:59N 45°38' W 122°42'0 0.0
2017-Oct-09 14:29N 45°38' W 122°42'0 0.0
2017-Oct-09 13:59N 45°38' W 122°42'0 0.0
2017-Oct-09 13:29N 45°38' W 122°42'0 0.0
2017-Oct-09 12:56N 45°38' W 122°42'0 0.0
2017-Oct-09 12:26N 45°38' W 122°42'0 0.0
2017-Oct-09 11:59N 45°38' W 122°42'0 0.0
2017-Oct-09 11:29N 45°38' W 122°42'0 0.0
2017-Oct-09 10:59N 45°38' W 122°42'0 0.0
2017-Oct-09 10:08N 45°38' W 122°42'0 0.0
2017-Oct-09 09:59N 45°38' W 122°42'0 0.0
2017-Oct-09 08:59N 45°38' W 122°42'0 0.0
2017-Oct-09 08:29N 45°38' W 122°42'0 0.0
2017-Oct-09 07:59N 45°38' W 122°42'0 0.0
2017-Oct-09 07:29N 45°38' W 122°42'0 0.0
2017-Oct-09 06:56N 45°38' W 122°42'0 0.0
2017-Oct-09 06:29N 45°38' W 122°42'0 0.0
2017-Oct-09 05:59N 45°38' W 122°42'0 0.0
2017-Oct-09 05:29N 45°38' W 122°42'0 0.1
2017-Oct-09 04:59N 45°38' W 122°42'0 0.0
2017-Oct-09 04:29N 45°38' W 122°42'0 0.0
2017-Oct-09 03:56N 45°38' W 122°42'0 0.0
2017-Oct-09 03:29N 45°38' W 122°42'0 0.0
2017-Oct-09 02:59N 45°38' W 122°42'0 0.0
2017-Oct-09 02:26N 45°38' W 122°42'0 0.0
2017-Oct-09 01:59N 45°38' W 122°42'0 0.0
2017-Oct-09 01:29N 45°38' W 122°42'0 0.0
2017-Oct-09 00:59N 45°38' W 122°42'0 0.0
2017-Oct-09 00:23N 45°38' W 122°42'0 0.0
2017-Oct-08 23:59N 45°38' W 122°42'0 0.0
2017-Oct-08 23:29N 45°38' W 122°42'0 0.0
2017-Oct-08 22:59N 45°38' W 122°42'0 0.0
2017-Oct-08 22:29N 45°38' W 122°42'0 0.0
2017-Oct-08 21:59N 45°38' W 122°42'0 0.0
2017-Oct-08 21:26N 45°38' W 122°42'0 0.0
2017-Oct-08 20:56N 45°38' W 122°42'0 0.0
2017-Oct-08 20:29N 45°38' W 122°42'0 0.0
2017-Oct-08 19:59N 45°38' W 122°42'0 0.0
2017-Oct-08 19:29N 45°38' W 122°42'0 0.0
2017-Oct-08 18:59N 45°38' W 122°42'0 0.0
2017-Oct-08 18:29N 45°38' W 122°42'0 0.0
2017-Oct-08 17:59N 45°38' W 122°42'0 0.0
2017-Oct-08 17:29N 45°38' W 122°42'0 0.0
2017-Oct-08 16:59N 45°38' W 122°42'0 0.0
2017-Oct-08 16:29N 45°38' W 122°42'0 0.0
2017-Oct-08 15:56N 45°38' W 122°42'0 0.0
2017-Oct-08 15:29N 45°38' W 122°42'0 0.0
2017-Oct-08 14:59N 45°38' W 122°42'0 0.0
2017-Oct-08 14:29N 45°38' W 122°42'0 0.0
2017-Oct-08 13:59N 45°38' W 122°42'0 0.0
2017-Oct-08 13:29N 45°38' W 122°42'0 0.0
2017-Oct-08 12:59N 45°38' W 122°42'0 0.0
2017-Oct-08 12:29N 45°38' W 122°42'0 0.0
2017-Oct-08 11:59N 45°38' W 122°42'0 0.0
2017-Oct-08 11:29N 45°38' W 122°42'0 0.0
2017-Oct-08 10:59N 45°38' W 122°42'0 0.0
2017-Oct-08 10:29N 45°38' W 122°42'0 0.0
2017-Oct-08 09:59N 45°38' W 122°42'0 0.0
2017-Oct-08 09:29N 45°38' W 122°42'0 0.0
2017-Oct-08 08:59N 45°38' W 122°42'0 0.0
2017-Oct-08 08:29N 45°38' W 122°42'0 0.0
2017-Oct-08 07:59N 45°38' W 122°42'0 0.0
2017-Oct-08 07:29N 45°38' W 122°42'0 0.0
2017-Oct-08 06:59N 45°38' W 122°42'0 0.0
2017-Oct-08 06:29N 45°38' W 122°42'0 0.0
2017-Oct-08 05:56N 45°38' W 122°42'0 0.0
2017-Oct-08 05:29N 45°38' W 122°42'0 0.0
2017-Oct-08 04:59N 45°38' W 122°42'0 0.0
2017-Oct-08 04:29N 45°38' W 122°42'0 0.0
2017-Oct-08 03:59N 45°38' W 122°42'0 0.0
2017-Oct-08 03:29N 45°38' W 122°42'0 0.0
2017-Oct-08 02:59N 45°38' W 122°42'0 0.0
2017-Oct-08 02:29N 45°38' W 122°42'0 0.0
2017-Oct-08 01:59N 45°38' W 122°42'0 0.0
2017-Oct-08 01:29N 45°38' W 122°42'0 0.0
2017-Oct-08 00:56N 45°38' W 122°42'0 0.0
2017-Oct-08 00:29N 45°38' W 122°42'0 0.0
2017-Oct-07 23:59N 45°38' W 122°42'0 0.0
2017-Oct-07 23:29N 45°38' W 122°42'0 0.0
2017-Oct-07 22:59N 45°38' W 122°42'0 0.0
2017-Oct-07 22:29N 45°38' W 122°42'0 0.0
2017-Oct-07 21:59N 45°38' W 122°42'0 0.0
2017-Oct-07 21:23N 45°38' W 122°42'0 0.0
2017-Oct-07 20:59N 45°38' W 122°42'0 0.0
2017-Oct-07 20:29N 45°38' W 122°42'0 0.0
2017-Oct-07 19:59N 45°38' W 122°42'0 0.0
2017-Oct-07 19:29N 45°38' W 122°42'0 0.0
2017-Oct-07 18:59N 45°38' W 122°42'0 0.0
2017-Oct-07 18:29N 45°38' W 122°42'0 0.0
2017-Oct-07 17:59N 45°38' W 122°42'0 0.0
2017-Oct-07 17:29N 45°38' W 122°42'0 0.0
2017-Oct-07 16:59N 45°38' W 122°42'0 0.0
2017-Oct-07 16:29N 45°38' W 122°42'0 0.0
2017-Oct-07 15:59N 45°38' W 122°42'0 0.0
2017-Oct-07 15:29N 45°38' W 122°42'0 0.0
2017-Oct-07 14:59N 45°38' W 122°42'0 0.0
2017-Oct-07 14:29N 45°38' W 122°42'0 0.0
2017-Oct-07 13:59N 45°38' W 122°42'0 0.0
2017-Oct-07 13:29N 45°38' W 122°42'0 0.0
2017-Oct-07 12:59N 45°38' W 122°42'0 0.0
2017-Oct-07 12:30N 45°38' W 122°42'2 3.0
2017-Oct-07 12:00N 45°39' W 122°44'5 9.7
2017-Oct-07 11:30N 45°43' W 122°46'612.3
2017-Oct-07 11:00N 45°49' W 122°48'611.9
2017-Oct-07 10:30N 45°55' W 122°48'611.9
2017-Oct-07 09:59N 46°01' W 122°51'511.3
2017-Oct-07 09:30N 46°06' W 122°55'611.5
2017-Oct-07 09:00N 46°09' W 123°02'910.8
2017-Oct-07 08:12N 46°09' W 123°15'212.3
2017-Oct-07 08:00N 46°09' W 123°18'611.2
2017-Oct-07 07:30N 46°11' W 123°26'7 9.1
2017-Oct-07 06:46N 46°16' W 123°32'312.9
2017-Oct-07 06:30N 46°15' W 123°37'612.6
2017-Oct-07 06:00N 46°13' W 123°45'1 2.4
2017-Oct-07 05:29N 46°13' W 123°47'0 0.3
2017-Oct-07 04:59N 46°13' W 123°47'0 0.2
2017-Oct-07 04:29N 46°13' W 123°47'0 0.0
2017-Oct-07 03:59N 46°13' W 123°47'0 0.0
2017-Oct-07 03:29N 46°13' W 123°47'0 0.0
2017-Oct-07 02:54N 46°13' W 123°47'0 0.0
2017-Oct-07 02:29N 46°13' W 123°47'0 0.1
2017-Oct-07 02:00N 46°13' W 123°48'0 0.0
2017-Oct-07 01:29N 46°13' W 123°48'0 0.0
2017-Oct-07 00:59N 46°13' W 123°48'0 0.0
2017-Oct-07 00:29N 46°13' W 123°48'0 0.0
2017-Oct-06 23:59N 46°13' W 123°48'0 0.1
2017-Oct-06 23:26N 46°13' W 123°48'0 0.5
2017-Oct-06 22:59N 46°13' W 123°47'0 0.2
2017-Oct-06 22:29N 46°13' W 123°47'0 0.0
2017-Oct-06 22:00N 46°13' W 123°47'0 0.0
2017-Oct-06 21:05N 46°13' W 123°47'0 0.0
2017-Oct-06 20:59N 46°13' W 123°47'0 0.0
2017-Oct-06 20:26N 46°13' W 123°47'0 0.0
2017-Oct-06 20:00N 46°13' W 123°47'0 0.0
2017-Oct-06 19:27N 46°13' W 123°47'0 0.0
2017-Oct-06 19:00N 46°13' W 123°47'0 0.0
2017-Oct-06 18:30N 46°13' W 123°47'0 0.0
2017-Oct-06 18:00N 46°13' W 123°47'0 0.1
2017-Oct-06 17:23N 46°13' W 123°47'0 0.4
2017-Oct-06 16:54N 46°13' W 123°48'0 0.1
2017-Oct-06 16:30N 46°13' W 123°48'0 0.1
2017-Oct-06 15:51N 46°13' W 123°48'0 0.0
2017-Oct-06 15:29N 46°13' W 123°48'0 0.0
2017-Oct-06 14:38N 46°13' W 123°48'0 0.0
2017-Oct-06 14:29N 46°13' W 123°48'0 0.0
2017-Oct-06 13:59N 46°13' W 123°48'0 0.0
2017-Oct-06 13:29N 46°13' W 123°48'0 0.0
2017-Oct-06 12:59N 46°13' W 123°48'0 0.0
2017-Oct-06 12:29N 46°13' W 123°48'0 0.0
2017-Oct-06 11:47N 46°13' W 123°48'0 0.0
2017-Oct-06 11:26N 46°13' W 123°48'0 0.0
2017-Oct-06 10:59N 46°13' W 123°48'0 0.4
2017-Oct-06 10:29N 46°13' W 123°47'0 0.1
2017-Oct-06 09:59N 46°13' W 123°47'0 0.1
2017-Oct-06 09:29N 46°13' W 123°47'0 0.0
2017-Oct-06 08:59N 46°13' W 123°47'0 0.0
2017-Oct-06 08:29N 46°13' W 123°47'0 0.0
2017-Oct-06 07:59N 46°13' W 123°47'0 0.1
2017-Oct-06 07:29N 46°13' W 123°47'0 0.0
2017-Oct-06 06:59N 46°13' W 123°47'0 0.0
2017-Oct-06 06:29N 46°13' W 123°47'0 0.0
2017-Oct-06 05:59N 46°13' W 123°47'0 0.1
2017-Oct-06 05:29N 46°13' W 123°47'0 0.5
2017-Oct-06 04:59N 46°13' W 123°48'0 0.2
2017-Oct-06 04:30N 46°13' W 123°48'0 0.0
2017-Oct-06 04:00N 46°13' W 123°48'0 0.0
2017-Oct-06 03:30N 46°13' W 123°48'0 0.0
2017-Oct-06 03:00N 46°13' W 123°48'0 0.0
2017-Oct-06 02:29N 46°13' W 123°48'0 0.0
2017-Oct-06 01:59N 46°13' W 123°48'0 0.0
2017-Oct-06 01:29N 46°13' W 123°48'0 0.0
2017-Oct-06 00:59N 46°13' W 123°48'0 0.0
2017-Oct-06 00:29N 46°13' W 123°48'0 0.0
2017-Oct-05 23:57N 46°13' W 123°48'0 0.0
2017-Oct-05 23:29N 46°13' W 123°48'0 0.0
2017-Oct-05 22:59N 46°13' W 123°48'0 0.0
2017-Oct-05 22:29N 46°13' W 123°48'0 0.3
2017-Oct-05 21:59N 46°13' W 123°47'0 0.3
2017-Oct-05 21:29N 46°13' W 123°47'0 0.0
2017-Oct-05 20:59N 46°13' W 123°47'0 0.0
2017-Oct-05 20:29N 46°13' W 123°47'0 0.1
2017-Oct-05 19:59N 46°13' W 123°47'0 0.1
2017-Oct-05 19:29N 46°13' W 123°47'0 0.0
2017-Oct-05 18:59N 46°13' W 123°47'0 0.0
2017-Oct-05 18:30N 46°13' W 123°47'0 0.0
2017-Oct-05 17:59N 46°13' W 123°47'0 0.0
2017-Oct-05 17:29N 46°13' W 123°47'0 0.4
2017-Oct-05 16:59N 46°13' W 123°47'0 0.1
2017-Oct-05 15:28N 46°13' W 123°48'0 0.0
2017-Oct-05 14:59N 46°13' W 123°48'0 0.0
2017-Oct-05 14:29N 46°13' W 123°48'0 0.0
2017-Oct-05 13:59N 46°13' W 123°48'0 0.0
2017-Oct-05 13:27N 46°13' W 123°48'0 0.0
2017-Oct-05 12:38N 46°13' W 123°48'0 0.0
2017-Oct-05 12:29N 46°13' W 123°48'0 0.0
2017-Oct-05 11:50N 46°13' W 123°48'0 0.0
2017-Oct-05 11:29N 46°13' W 123°48'0 0.0
2017-Oct-05 10:50N 46°13' W 123°48'0 0.0
2017-Oct-05 10:29N 46°13' W 123°48'0 0.0
2017-Oct-05 09:59N 46°13' W 123°48'0 0.0
2017-Oct-05 09:29N 46°13' W 123°48'0 0.3
2017-Oct-05 08:59N 46°13' W 123°47'0 0.3
2017-Oct-05 08:29N 46°13' W 123°47'0 0.0
2017-Oct-05 07:47N 46°13' W 123°47'0 0.2
2017-Oct-05 07:29N 46°13' W 123°47'0 0.0
2017-Oct-05 06:59N 46°13' W 123°47'0 0.0
2017-Oct-05 06:29N 46°13' W 123°47'0 0.0
2017-Oct-05 05:41N 46°13' W 123°47'0 0.1
2017-Oct-05 05:29N 46°13' W 123°47'0 0.0
2017-Oct-05 04:59N 46°13' W 123°47'0 0.5
2017-Oct-05 04:29N 46°13' W 123°48'0 0.1
2017-Oct-05 03:59N 46°13' W 123°48'0 0.0
2017-Oct-05 03:29N 46°13' W 123°48'0 0.0
2017-Oct-05 02:59N 46°13' W 123°48'0 0.0
2017-Oct-05 02:29N 46°13' W 123°48'0 0.0
2017-Oct-05 01:59N 46°13' W 123°48'0 0.0
2017-Oct-05 01:26N 46°13' W 123°48'0 0.0
2017-Oct-05 00:59N 46°13' W 123°48'0 0.0
2017-Oct-05 00:29N 46°13' W 123°48'0 0.0
2017-Oct-04 23:59N 46°13' W 123°48'0 0.0
2017-Oct-04 23:29N 46°13' W 123°48'0 0.0
2017-Oct-04 22:59N 46°13' W 123°48'0 0.0
2017-Oct-04 22:26N 46°13' W 123°48'0 0.0
2017-Oct-04 21:44N 46°13' W 123°48'0 0.3
2017-Oct-04 21:29N 46°13' W 123°47'0 0.4
2017-Oct-04 20:59N 46°13' W 123°47'0 0.1
2017-Oct-04 20:29N 46°13' W 123°47'0 0.0
2017-Oct-04 19:59N 46°13' W 123°47'0 0.0
2017-Oct-04 19:29N 46°13' W 123°47'0 0.0
2017-Oct-04 18:59N 46°13' W 123°47'0 0.0
2017-Oct-04 18:29N 46°13' W 123°47'0 0.0
2017-Oct-04 17:59N 46°13' W 123°47'0 0.0
2017-Oct-04 17:29N 46°13' W 123°47'0 0.1
2017-Oct-04 16:59N 46°13' W 123°47'0 0.4
2017-Oct-04 16:29N 46°13' W 123°47'0 0.2
2017-Oct-04 15:59N 46°13' W 123°48'0 0.1
2017-Oct-04 15:29N 46°13' W 123°48'0 0.0
2017-Oct-04 14:59N 46°13' W 123°48'0 0.0
2017-Oct-04 14:29N 46°13' W 123°48'0 0.0
2017-Oct-04 13:53N 46°13' W 123°48'0 0.0
2017-Oct-04 13:29N 46°13' W 123°48'0 0.0
2017-Oct-04 12:59N 46°13' W 123°48'0 0.0
2017-Oct-04 12:29N 46°13' W 123°48'0 0.0
2017-Oct-04 11:56N 46°13' W 123°48'0 0.0
2017-Oct-04 11:29N 46°13' W 123°48'0 0.0
2017-Oct-04 10:59N 46°13' W 123°48'0 0.0
2017-Oct-04 10:26N 46°13' W 123°48'0 0.0
2017-Oct-04 09:59N 46°13' W 123°48'0 0.0
2017-Oct-04 09:29N 46°13' W 123°48'0 0.0
2017-Oct-04 08:59N 46°13' W 123°48'0 0.2
2017-Oct-04 08:29N 46°13' W 123°48'0 0.4
2017-Oct-04 07:59N 46°13' W 123°47'0 0.1
2017-Oct-04 07:14N 46°13' W 123°47'0 0.0
2017-Oct-04 06:59N 46°13' W 123°47'0 0.0
2017-Oct-04 06:29N 46°13' W 123°47'0 0.0
2017-Oct-04 05:59N 46°13' W 123°47'0 0.0
2017-Oct-04 05:26N 46°13' W 123°47'0 0.0
2017-Oct-04 04:59N 46°13' W 123°47'0 0.0
2017-Oct-04 04:29N 46°13' W 123°47'0 0.2
2017-Oct-04 03:26N 46°13' W 123°47'0 0.1
2017-Oct-04 02:59N 46°13' W 123°48'0 0.0
2017-Oct-04 02:29N 46°13' W 123°48'0 0.0
2017-Oct-04 01:59N 46°13' W 123°48'0 0.0
2017-Oct-04 01:29N 46°13' W 123°48'0 0.0
2017-Oct-04 00:59N 46°13' W 123°48'0 0.0
2017-Oct-04 00:29N 46°13' W 123°48'0 0.0
2017-Oct-03 23:59N 46°13' W 123°48'0 0.0
2017-Oct-03 23:29N 46°13' W 123°48'0 0.0
2017-Oct-03 22:59N 46°13' W 123°48'0 0.0
2017-Oct-03 22:17N 46°13' W 123°48'0 0.0
2017-Oct-03 21:59N 46°13' W 123°48'0 0.1
2017-Oct-03 21:29N 46°13' W 123°48'0 0.2
2017-Oct-03 20:59N 46°13' W 123°47'0 0.4
2017-Oct-03 20:29N 46°13' W 123°47'0 0.2
2017-Oct-03 19:59N 46°13' W 123°47'0 0.0
2017-Oct-03 19:29N 46°13' W 123°47'0 0.0
2017-Oct-03 18:59N 46°13' W 123°47'0 0.0
2017-Oct-03 18:29N 46°13' W 123°47'0 0.0
2017-Oct-03 17:59N 46°13' W 123°47'0 0.0
2017-Oct-03 17:29N 46°13' W 123°47'0 0.0
2017-Oct-03 16:59N 46°13' W 123°47'0 0.0
2017-Oct-03 16:29N 46°13' W 123°47'0 0.2
2017-Oct-03 15:59N 46°13' W 123°47'0 0.3
2017-Oct-03 15:20N 46°13' W 123°48'0 0.0
2017-Oct-03 14:56N 46°13' W 123°48'0 0.0
2017-Oct-03 13:59N 46°13' W 123°48'0 0.0
2017-Oct-03 13:29N 46°13' W 123°48'0 0.0
2017-Oct-03 12:56N 46°13' W 123°48'0 0.0
2017-Oct-03 12:29N 46°13' W 123°48'0 0.0
2017-Oct-03 11:59N 46°13' W 123°48'0 0.0
2017-Oct-03 11:29N 46°13' W 123°48'0 0.0
2017-Oct-03 10:59N 46°13' W 123°48'0 0.0
2017-Oct-03 10:29N 46°13' W 123°48'0 0.0
2017-Oct-03 09:56N 46°13' W 123°48'0 0.1
2017-Oct-03 09:29N 46°13' W 123°48'0 0.0
2017-Oct-03 08:59N 46°13' W 123°48'0 0.1
2017-Oct-03 08:26N 46°13' W 123°48'0 0.2
2017-Oct-03 08:00N 46°13' W 123°47'0 0.4
2017-Oct-03 07:30N 46°13' W 123°47'0 0.1
2017-Oct-03 06:57N 46°13' W 123°47'0 0.0
2017-Oct-03 06:27N 46°13' W 123°47'0 0.1
2017-Oct-03 05:57N 46°13' W 123°47'0 0.0
2017-Oct-03 05:29N 46°13' W 123°47'0 0.0
2017-Oct-03 05:00N 46°13' W 123°47'0 0.0
2017-Oct-03 04:30N 46°13' W 123°47'0 0.0
2017-Oct-03 04:00N 46°13' W 123°47'0 0.4
2017-Oct-03 03:27N 46°13' W 123°47'0 0.2
2017-Oct-03 03:00N 46°13' W 123°47'0 0.1
2017-Oct-03 02:29N 46°13' W 123°48'0 0.0
2017-Oct-03 01:57N 46°13' W 123°48'0 0.0
2017-Oct-03 01:12N 46°13' W 123°48'0 0.0
2017-Oct-03 00:38N 46°13' W 123°48'0 0.0
2017-Oct-03 00:29N 46°13' W 123°48'0 0.0
2017-Oct-02 23:59N 46°13' W 123°48'0 0.0
2017-Oct-02 23:29N 46°13' W 123°48'0 0.0
2017-Oct-02 22:59N 46°13' W 123°48'0 0.0
2017-Oct-02 22:29N 46°13' W 123°48'0 0.0
2017-Oct-02 21:56N 46°13' W 123°48'0 0.1
2017-Oct-02 21:29N 46°13' W 123°48'0 0.0
2017-Oct-02 20:59N 46°13' W 123°48'0 0.1
2017-Oct-02 20:29N 46°13' W 123°48'0 0.4
2017-Oct-02 19:59N 46°13' W 123°47'0 0.1
2017-Oct-02 19:29N 46°13' W 123°47'0 0.0
2017-Oct-02 18:59N 46°13' W 123°47'0 0.0
2017-Oct-02 18:29N 46°13' W 123°47'0 0.0
2017-Oct-02 17:59N 46°13' W 123°47'0 0.0
2017-Oct-02 17:29N 46°13' W 123°47'0 0.0
2017-Oct-02 16:56N 46°13' W 123°47'0 0.0
2017-Oct-02 16:29N 46°13' W 123°47'0 0.0
2017-Oct-02 15:59N 46°13' W 123°47'0 0.1
2017-Oct-02 15:29N 46°13' W 123°47'0 0.4
2017-Oct-02 14:59N 46°13' W 123°47'0 0.2
2017-Oct-02 14:24N 46°13' W 123°48'0 0.0
2017-Oct-02 13:38N 46°13' W 123°48'0 0.1
2017-Oct-02 13:29N 46°13' W 123°48'0 0.0
2017-Oct-02 12:59N 46°13' W 123°48'0 0.0
2017-Oct-02 12:29N 46°13' W 123°48'0 0.0
2017-Oct-02 11:59N 46°13' W 123°48'0 0.0
2017-Oct-02 11:26N 46°13' W 123°48'0 0.0
2017-Oct-02 10:56N 46°13' W 123°48'0 0.0
2017-Oct-02 10:29N 46°13' W 123°48'0 0.0
2017-Oct-02 09:59N 46°13' W 123°48'0 0.0
2017-Oct-02 09:29N 46°13' W 123°48'0 0.0
2017-Oct-02 08:59N 46°13' W 123°48'0 0.0
2017-Oct-02 08:26N 46°13' W 123°48'0 0.1
2017-Oct-02 07:59N 46°13' W 123°47'0 0.0
2017-Oct-02 07:29N 46°13' W 123°47'0 0.3
2017-Oct-02 06:59N 46°13' W 123°47'0 0.4
2017-Oct-02 06:29N 46°13' W 123°47'0 0.1
2017-Oct-02 05:59N 46°13' W 123°47'0 0.0
2017-Oct-02 05:30N 46°13' W 123°47'0 0.0
2017-Oct-02 04:54N 46°13' W 123°47'0 0.0
2017-Oct-02 04:27N 46°13' W 123°47'0 0.1
2017-Oct-02 04:00N 46°13' W 123°47'0 0.0
2017-Oct-02 03:27N 46°13' W 123°47'0 0.1
2017-Oct-02 02:57N 46°13' W 123°47'0 0.2
2017-Oct-02 02:29N 46°13' W 123°47'0 0.3
2017-Oct-02 02:00N 46°13' W 123°47'0 0.1
2017-Oct-02 01:30N 46°13' W 123°47'0 0.1
2017-Oct-02 01:00N 46°13' W 123°48'0 0.0
2017-Oct-02 00:30N 46°13' W 123°48'0 0.0
2017-Oct-01 23:57N 46°13' W 123°48'0 0.0
2017-Oct-01 23:30N 46°13' W 123°48'0 0.0
2017-Oct-01 23:00N 46°13' W 123°48'0 0.0
2017-Oct-01 22:30N 46°13' W 123°48'0 0.0
2017-Oct-01 21:26N 46°13' W 123°48'0 0.0
2017-Oct-01 20:59N 46°13' W 123°48'0 0.1
2017-Oct-01 20:29N 46°13' W 123°48'0 0.5
2017-Oct-01 19:59N 46°13' W 123°47'0 0.1
2017-Oct-01 19:29N 46°13' W 123°47'0 0.1
2017-Oct-01 18:59N 46°13' W 123°47'0 0.0
2017-Oct-01 18:29N 46°13' W 123°47'0 0.0
2017-Oct-01 17:59N 46°13' W 123°47'0 0.0
2017-Oct-01 17:29N 46°13' W 123°47'0 0.1
2017-Oct-01 16:59N 46°13' W 123°47'0 0.1
2017-Oct-01 16:23N 46°13' W 123°47'0 0.1
2017-Oct-01 15:59N 46°13' W 123°47'0 0.0
2017-Oct-01 15:29N 46°13' W 123°47'0 0.1
2017-Oct-01 14:53N 46°13' W 123°47'0 0.3
2017-Oct-01 14:29N 46°13' W 123°47'0 0.3
2017-Oct-01 13:59N 46°13' W 123°47'0 0.1
2017-Oct-01 13:26N 46°13' W 123°48'0 0.0
2017-Oct-01 12:59N 46°13' W 123°48'0 0.0
2017-Oct-01 12:29N 46°13' W 123°48'0 0.0
2017-Oct-01 11:59N 46°13' W 123°48'0 0.0
2017-Oct-01 11:29N 46°13' W 123°48'0 0.0
2017-Oct-01 10:59N 46°13' W 123°48'0 0.0
2017-Oct-01 10:29N 46°13' W 123°48'0 0.0
2017-Oct-01 09:59N 46°13' W 123°48'0 0.0
2017-Oct-01 09:29N 46°13' W 123°48'0 0.0
2017-Oct-01 08:59N 46°13' W 123°48'0 0.0
2017-Oct-01 08:29N 46°13' W 123°48'0 0.0
2017-Oct-01 07:54N 46°13' W 123°48'0 0.0
2017-Oct-01 07:27N 46°13' W 123°48'0 0.1
2017-Oct-01 06:57N 46°13' W 123°47'0 0.1
2017-Oct-01 06:30N 46°13' W 123°47'0 0.3
2017-Oct-01 06:00N 46°13' W 123°47'0 0.1
2017-Oct-01 05:27N 46°13' W 123°47'0 0.1
2017-Oct-01 04:57N 46°13' W 123°47'0 0.0
2017-Oct-01 04:27N 46°13' W 123°47'0 0.0
2017-Oct-01 04:00N 46°13' W 123°47'0 0.0
2017-Oct-01 03:06N 46°13' W 123°47'0 0.1
2017-Oct-01 03:00N 46°13' W 123°47'  

Dump ship's entire track history